Weather Data

Pearl Creek Farm: 8878 N Farm Road 75, Walnut Grove MO 65770

<== Previous Day (Tuesday 01 Jan 2013) | Next Day (Thursday 03 Jan 2013) ==>

Summary Precipitation Data For Wednesday 02 January 2013

ElementValueUnits
Precipitation0"
New Snow Depth0"
New Snow Water Equivalent0"
Total Snow DepthT
Total Snow Water Equivalent*T
NotesSome frost today. Snow still hanging on in some areas, mainly bare ground. Temperatures remain near freezing and the sun isn't much good for melting what's left.
SourcePearl Creek Farm

* Total Snow Water Equivalent is not measured every day.

Summary Temperature Data For Wednesday 02 January 2013

ElementValueUnits
High Temperature37 oF
Low Temperature15 oF
Average Temperature24 oF
High Humidity90 %
Low Humidity51 %
Average Humidity78 %
SourcePearl Creek Farm

Detail Temperature Data For Wednesday 02 January 2013

Date / TimeTemp (F)RH (%)Dew Pt (F)Report Date / TimeSource
2013-01-02 00:00:00 18 85 14.3 2013-01-27 10:51:56 Pearl Creek Farm
2013-01-02 00:30:00 18 86 14.5 2013-01-27 10:51:56 Pearl Creek Farm
2013-01-02 01:00:00 17 86 13.4 2013-01-27 10:51:56 Pearl Creek Farm
2013-01-02 01:30:00 17 86 13.4 2013-01-27 10:51:56 Pearl Creek Farm
2013-01-02 02:00:00 16 86 12.6 2013-01-27 10:51:56 Pearl Creek Farm
2013-01-02 02:30:00 17 87 13.7 2013-01-27 10:51:56 Pearl Creek Farm
2013-01-02 03:00:00 17 86 13.6 2013-01-27 10:51:56 Pearl Creek Farm
2013-01-02 03:30:00 17 86 13.4 2013-01-27 10:51:56 Pearl Creek Farm
2013-01-02 04:00:00 17 86 13.4 2013-01-27 10:51:56 Pearl Creek Farm
2013-01-02 04:30:00 16 86 12.4 2013-01-27 10:51:56 Pearl Creek Farm
2013-01-02 05:00:00 16 87 12.7 2013-01-27 10:51:56 Pearl Creek Farm
2013-01-02 05:30:00 15 86 11.6 2013-01-27 10:51:56 Pearl Creek Farm
2013-01-02 06:00:00 15 85 11.3 2013-01-27 10:51:56 Pearl Creek Farm
2013-01-02 06:30:00 15 86 11.6 2013-01-27 10:51:56 Pearl Creek Farm
2013-01-02 07:00:00 15 86 11.5 2013-01-27 10:51:56 Pearl Creek Farm
2013-01-02 07:30:00 15 86 11.6 2013-01-27 10:51:56 Pearl Creek Farm
2013-01-02 08:00:00 15 86 11.6 2013-01-27 10:51:56 Pearl Creek Farm
2013-01-02 08:30:00 17 88 13.9 2013-01-27 10:51:56 Pearl Creek Farm
2013-01-02 09:00:00 20 90 17.4 2013-01-27 10:51:56 Pearl Creek Farm
2013-01-02 09:30:00 22 89 19.1 2013-01-27 10:51:56 Pearl Creek Farm
2013-01-02 10:00:00 24 87 20.7 2013-01-27 10:51:56 Pearl Creek Farm
2013-01-02 10:30:00 25 86 21.4 2013-01-27 10:51:56 Pearl Creek Farm
2013-01-02 11:00:00 26 82 21.3 2013-01-27 10:51:56 Pearl Creek Farm
2013-01-02 11:30:00 28 82 23.1 2013-01-27 10:51:56 Pearl Creek Farm
2013-01-02 12:00:00 31 74 23.7 2013-01-27 10:51:56 Pearl Creek Farm
2013-01-02 12:30:00 33 69 24.0 2013-01-27 10:51:56 Pearl Creek Farm
2013-01-02 13:00:00 34 59 21.2 2013-01-27 10:51:56 Pearl Creek Farm
2013-01-02 13:30:00 35 58 21.8 2013-01-27 10:51:56 Pearl Creek Farm
2013-01-02 14:00:00 36 57 22.1 2013-01-27 10:51:56 Pearl Creek Farm
2013-01-02 14:30:00 37 54 21.9 2013-01-27 10:51:56 Pearl Creek Farm
2013-01-02 15:00:00 37 51 20.4 2013-01-27 10:51:56 Pearl Creek Farm
2013-01-02 15:30:00 37 54 21.9 2013-01-27 10:51:56 Pearl Creek Farm
2013-01-02 16:00:00 36 54 21.0 2013-01-27 10:51:56 Pearl Creek Farm
2013-01-02 16:30:00 35 58 21.6 2013-01-27 10:51:56 Pearl Creek Farm
2013-01-02 17:00:00 33 61 21.1 2013-01-27 10:51:56 Pearl Creek Farm
2013-01-02 17:30:00 31 67 21.2 2013-01-27 10:51:56 Pearl Creek Farm
2013-01-02 18:00:00 28 73 20.5 2013-01-27 10:51:56 Pearl Creek Farm
2013-01-02 18:30:00 26 76 19.5 2013-01-27 10:51:56 Pearl Creek Farm
2013-01-02 19:00:00 25 79 19.3 2013-01-27 10:51:56 Pearl Creek Farm
2013-01-02 19:30:00 24 80 18.6 2013-01-27 10:51:56 Pearl Creek Farm
2013-01-02 20:00:00 22 82 17.4 2013-01-27 10:51:56 Pearl Creek Farm
2013-01-02 20:30:00 22 83 17.7 2013-01-27 10:51:56 Pearl Creek Farm
2013-01-02 21:00:00 22 83 17.7 2013-01-27 10:51:56 Pearl Creek Farm
2013-01-02 21:30:00 22 84 17.9 2013-01-27 10:51:56 Pearl Creek Farm
2013-01-02 22:00:00 23 87 19.7 2013-01-27 10:51:56 Pearl Creek Farm
2013-01-02 22:30:00 25 86 21.4 2013-01-27 10:51:56 Pearl Creek Farm
2013-01-02 23:00:00 26 85 22.1 2013-01-27 10:51:56 Pearl Creek Farm
2013-01-02 23:30:00 26 84 21.8 2013-01-27 10:51:56 Pearl Creek Farm

A total of 48 rows are displayed.